Charlottesville, Virginia
Current Conditions -  °F | °C
As of 2:53 PM on Monday 22 Dec 2014 (Local Time) from KCHO Reporting Station
Haze Haze  
Wind Chill: 29°   Ceiling: 500
Heat Index: 33°   Visibility: 1mi
Dew Point: 31°   Wind: 5mph
Humidity: 92%   Direction: 350°N
Pressure: 30.14"   Gusts: NA
Location:  38.03°N, 78.48°W
Report Text: KCHO 221953Z 35004KT 1SM BR BKN005 OVC014 01/M01 A3014 RMK AO2 UPB39E49 SLP210 P0001 T00061006
Loading
Personal Weather Stations






























Interactive Weather Map New forecast layout! Learn more

10-Day Weather Forecast

Advertisements
Track Severe Weather on mobile